createdAt,value
2018-05-02T00:01:43.759Z,6.70
2018-05-02T00:06:17.720Z,15.23
2018-05-02T00:10:50.927Z,16.60
2018-05-02T00:15:24.091Z,9.97
2018-05-02T00:19:57.282Z,9.67
2018-05-02T00:24:30.477Z,8.97
2018-05-02T00:29:03.678Z,18.67
2018-05-02T00:33:36.867Z,12.13
2018-05-02T00:38:10.063Z,15.17
2018-05-02T00:42:43.250Z,22.17
2018-05-02T00:47:16.438Z,14.20
2018-05-02T00:51:50.370Z,5.50
2018-05-02T00:56:24.366Z,5.70
2018-05-02T01:00:58.325Z,6.50
2018-05-02T01:05:32.273Z,8.43
2018-05-02T01:10:05.444Z,15.20
2018-05-02T01:14:39.415Z,8.50
2018-05-02T01:19:12.582Z,10.43
2018-05-02T01:23:46.534Z,9.83
2018-05-02T01:28:19.741Z,10.40
2018-05-02T01:32:52.937Z,7.47
2018-05-02T01:37:26.117Z,18.63
2018-05-02T01:42:00.067Z,10.53
2018-05-02T01:46:33.270Z,15.00
2018-05-02T01:51:06.473Z,8.20
2018-05-02T01:55:39.634Z,9.97
2018-05-02T02:00:12.817Z,13.67
2018-05-02T02:04:46.005Z,11.60
2018-05-02T02:09:19.181Z,8.37
2018-05-02T02:13:53.124Z,7.80
2018-05-02T02:18:26.414Z,10.13
2018-05-02T02:23:00.365Z,22.50
2018-05-02T02:27:33.551Z,8.03
2018-05-02T02:32:07.483Z,8.40
2018-05-02T02:36:40.676Z,9.57
2018-05-02T02:41:14.630Z,11.57
2018-05-02T02:45:47.786Z,9.07
2018-05-02T02:50:20.987Z,10.70
2018-05-02T02:54:54.185Z,11.77
2018-05-02T02:59:27.381Z,10.57
2018-05-02T03:04:00.570Z,14.53
2018-05-02T03:08:33.774Z,12.30
2018-05-02T03:13:08.031Z,11.73
2018-05-02T03:17:41.218Z,15.53
2018-05-02T03:22:14.745Z,10.83
2018-05-02T03:26:47.938Z,8.43
2018-05-02T03:31:21.110Z,14.97
2018-05-02T03:35:55.061Z,12.50
2018-05-02T03:40:28.259Z,16.80
2018-05-02T03:45:01.553Z,11.50
2018-05-02T03:49:34.741Z,14.60
2018-05-02T03:54:08.686Z,9.93
2018-05-02T03:58:41.869Z,9.37
2018-05-02T04:03:27.893Z,9.87
2018-05-02T04:08:01.858Z,11.40
2018-05-02T04:12:35.038Z,14.73
2018-05-02T04:17:08.248Z,11.63
2018-05-02T04:21:41.418Z,10.57
2018-05-02T04:26:15.381Z,13.17
2018-05-02T04:30:48.569Z,14.53
2018-05-02T04:35:21.779Z,14.07
2018-05-02T04:39:54.945Z,15.90
2018-05-02T04:44:28.140Z,10.63
2018-05-02T04:49:01.340Z,9.90
2018-05-02T04:53:34.538Z,10.63
2018-05-02T04:58:07.730Z,9.33
2018-05-02T05:02:41.632Z,10.57
2018-05-02T05:07:15.090Z,9.63
2018-05-02T05:11:48.293Z,9.47
2018-05-02T05:16:21.461Z,10.43
2018-05-02T05:20:54.655Z,11.13
2018-05-02T05:25:28.614Z,10.63
2018-05-02T05:30:02.326Z,9.97
2018-05-02T05:34:40.723Z,9.20
2018-05-02T05:39:16.616Z,11.03
2018-05-02T05:43:49.898Z,9.87
2018-05-02T05:48:23.103Z,9.90
2018-05-02T05:52:57.059Z,11.87
2018-05-02T05:57:30.268Z,11.27
2018-05-02T06:02:03.511Z,9.77
2018-05-02T06:06:37.767Z,11.23
2018-05-02T06:11:10.898Z,10.30
2018-05-02T06:15:44.098Z,12.87
2018-05-02T06:20:18.030Z,12.53
2018-05-02T06:24:51.234Z,11.97
2018-05-02T06:29:24.426Z,11.90
2018-05-02T06:33:58.374Z,12.60
2018-05-02T06:38:31.583Z,11.60
2018-05-02T06:43:04.751Z,11.50
2018-05-02T06:47:37.955Z,12.43
2018-05-02T06:52:11.127Z,11.60
2018-05-02T06:56:44.331Z,13.00
2018-05-02T07:01:17.534Z,11.40
2018-05-02T07:05:50.758Z,11.23
2018-05-02T07:10:23.974Z,11.63
2018-05-02T07:14:57.172Z,11.00
2018-05-02T07:19:30.411Z,10.90
2018-05-02T07:24:04.431Z,10.90
2018-05-02T07:28:37.568Z,9.60
2018-05-02T07:33:10.762Z,10.00
2018-05-02T07:37:43.958Z,10.67
2018-05-02T07:42:17.913Z,10.63
2018-05-02T07:46:51.126Z,10.13
2018-05-02T07:51:24.327Z,9.83
2018-05-02T07:55:57.538Z,10.15
2018-05-02T08:00:30.738Z,10.00
2018-05-02T08:05:03.975Z,8.43
2018-05-02T08:09:37.181Z,7.75
2018-05-02T08:14:10.382Z,7.60
2018-05-02T08:18:43.647Z,8.55
2018-05-02T08:23:16.918Z,8.13
2018-05-02T08:27:50.122Z,6.95
2018-05-02T08:32:23.318Z,8.00
2018-05-02T08:36:57.311Z,8.48
2018-05-02T08:41:30.506Z,7.47
2018-05-02T08:46:03.701Z,7.37
2018-05-02T08:50:37.720Z,6.70
2018-05-02T08:55:11.689Z,5.97
2018-05-02T08:59:44.855Z,5.15
2018-05-02T09:04:19.075Z,6.05
2018-05-02T09:08:52.664Z,6.28
2018-05-02T09:13:25.866Z,5.70
2018-05-02T09:17:59.105Z,5.57
2018-05-02T09:22:33.070Z,4.30
2018-05-02T09:27:06.235Z,3.85
2018-05-02T09:31:40.199Z,3.83
2018-05-02T09:36:13.399Z,3.90
2018-05-02T09:40:46.593Z,3.30
2018-05-02T09:45:19.811Z,2.80
2018-05-02T09:49:52.982Z,2.85
2018-05-02T09:54:26.176Z,3.17
2018-05-02T09:59:00.146Z,3.03
2018-05-02T10:03:33.735Z,4.10
2018-05-02T10:08:07.681Z,3.30
2018-05-02T10:12:40.985Z,3.12
2018-05-02T10:17:14.095Z,2.47
2018-05-02T10:21:47.285Z,2.53
2018-05-02T10:26:21.323Z,2.70
2018-05-02T10:30:54.494Z,2.95
2018-05-02T10:35:29.201Z,13.73
2018-05-02T10:40:02.419Z,4.62
2018-05-02T10:44:35.582Z,3.55
2018-05-02T10:49:08.774Z,3.20
2018-05-02T10:53:42.897Z,3.30
2018-05-02T10:58:16.926Z,3.40
2018-05-02T11:02:51.154Z,3.37
2018-05-02T11:07:25.873Z,2.60
2018-05-02T11:11:59.141Z,2.83
2018-05-02T11:16:32.618Z,4.15
2018-05-02T11:21:06.848Z,3.40
2018-05-02T11:25:40.976Z,3.37
2018-05-02T11:30:15.357Z,2.45
2018-05-02T11:34:48.748Z,2.85
2018-05-02T11:39:23.073Z,2.85
2018-05-02T11:43:56.394Z,2.55
2018-05-02T11:48:30.468Z,2.65
2018-05-02T11:53:03.724Z,2.45
2018-05-02T11:57:37.186Z,3.12
2018-05-02T12:02:10.449Z,3.22
2018-05-02T12:06:44.065Z,2.35
2018-05-02T12:11:17.373Z,2.53
2018-05-02T12:15:50.633Z,3.45
2018-05-02T12:20:23.893Z,2.75
2018-05-02T12:24:57.378Z,2.40
2018-05-02T12:29:31.441Z,4.50
2018-05-02T12:34:05.532Z,4.55
2018-05-02T12:38:39.373Z,2.80
2018-05-02T12:43:12.814Z,4.03
2018-05-02T12:47:46.406Z,4.35
2018-05-02T12:52:19.717Z,2.50
2018-05-02T12:56:53.601Z,2.83
2018-05-02T13:01:28.391Z,2.50
2018-05-02T13:06:01.791Z,3.05
2018-05-02T13:10:35.653Z,3.35
2018-05-02T13:15:08.997Z,2.90
2018-05-02T13:19:43.017Z,3.20
2018-05-02T13:24:17.269Z,3.35
2018-05-02T13:28:50.561Z,3.30
2018-05-02T13:33:24.572Z,2.90
2018-05-02T13:37:57.925Z,3.22
2018-05-02T13:42:31.316Z,3.33
2018-05-02T13:47:05.330Z,3.65
2018-05-02T13:51:39.381Z,2.97
2018-05-02T13:56:12.670Z,4.90
2018-05-02T14:00:47.084Z,5.12
2018-05-02T14:05:20.517Z,3.60
2018-05-02T14:09:54.505Z,3.00
2018-05-02T14:14:27.666Z,3.05
2018-05-02T14:19:00.918Z,3.65
2018-05-02T14:23:34.071Z,3.08
2018-05-02T14:28:07.278Z,2.60
2018-05-02T14:32:41.287Z,3.00
2018-05-02T14:37:15.273Z,2.75
2018-05-02T14:41:48.528Z,2.90
2018-05-02T14:46:22.516Z,2.90
2018-05-02T14:50:55.690Z,3.17
2018-05-02T14:55:29.244Z,3.12
2018-05-02T15:00:02.415Z,3.08
2018-05-02T15:04:35.643Z,3.78
2018-05-02T15:09:08.863Z,3.37
2018-05-02T15:13:42.080Z,2.70
2018-05-02T15:18:15.249Z,4.50
2018-05-02T15:22:48.458Z,2.85
2018-05-02T15:27:21.627Z,6.37
2018-05-02T15:31:55.598Z,3.50
2018-05-02T15:36:28.769Z,2.85
2018-05-02T15:41:02.005Z,2.70
2018-05-02T15:45:35.169Z,2.95
2018-05-02T15:50:09.153Z,2.55
2018-05-02T15:54:42.315Z,3.40
2018-05-02T15:59:18.977Z,2.87
2018-05-02T16:03:52.776Z,3.20
2018-05-02T16:08:26.418Z,3.28
2018-05-02T16:13:00.386Z,3.17
2018-05-02T16:17:34.029Z,2.90
2018-05-02T16:22:07.331Z,3.30
2018-05-02T16:26:40.472Z,3.00
2018-05-02T16:31:14.443Z,3.37
2018-05-02T16:35:47.606Z,3.25
2018-05-02T16:40:21.567Z,3.47
2018-05-02T16:44:54.798Z,4.05
2018-05-02T16:49:27.965Z,2.87
2018-05-02T16:54:01.195Z,3.00
2018-05-02T16:58:34.490Z,2.67
2018-05-02T17:03:07.876Z,3.20
2018-05-02T17:07:40.955Z,3.17
2018-05-02T17:12:14.154Z,2.97
2018-05-02T17:16:47.402Z,3.15
2018-05-02T17:21:20.561Z,3.37
2018-05-02T17:25:53.902Z,2.97
2018-05-02T17:30:27.830Z,3.10
2018-05-02T17:35:01.799Z,3.12
2018-05-02T17:39:34.969Z,4.20
2018-05-02T17:44:08.934Z,6.18
2018-05-02T17:48:42.186Z,4.57
2018-05-02T17:53:15.415Z,4.57
2018-05-02T17:57:48.621Z,5.22
2018-05-02T18:02:21.837Z,6.25
2018-05-02T18:06:54.998Z,6.90
2018-05-02T18:11:29.135Z,6.57
2018-05-02T18:16:02.417Z,6.30
2018-05-02T18:20:35.535Z,3.90
2018-05-02T18:25:08.736Z,3.78
2018-05-02T18:29:41.949Z,6.40
2018-05-02T18:34:15.122Z,4.97
2018-05-02T18:38:48.506Z,6.70
2018-05-02T18:43:21.739Z,7.27
2018-05-02T18:47:54.934Z,8.07
2018-05-02T18:52:28.125Z,4.67
2018-05-02T18:57:02.078Z,10.33
2018-05-02T19:01:36.875Z,7.47
2018-05-02T19:06:10.159Z,5.10
2018-05-02T19:10:43.347Z,4.60
2018-05-02T19:15:16.530Z,7.40
2018-05-02T19:19:55.414Z,14.20
2018-05-02T19:24:34.318Z,12.73
2018-05-02T19:29:07.524Z,12.90
2018-05-02T19:33:46.333Z,13.47
2018-05-02T19:38:20.301Z,13.70
2018-05-02T19:42:59.210Z,12.90
2018-05-02T19:47:32.432Z,11.30
2018-05-02T19:52:11.332Z,11.90
2018-05-02T19:56:45.339Z,11.40
2018-05-02T20:01:24.333Z,10.20
2018-05-02T20:05:57.556Z,11.07
2018-05-02T20:10:36.630Z,9.00
2018-05-02T20:15:09.858Z,9.90
2018-05-02T20:19:43.889Z,12.67
2018-05-02T20:24:17.159Z,12.03
2018-05-02T20:28:50.436Z,8.37
2018-05-02T20:33:23.679Z,8.70
2018-05-02T20:37:56.882Z,7.83
2018-05-02T20:42:30.760Z,11.00
2018-05-02T20:47:04.167Z,8.60
2018-05-02T20:51:37.377Z,9.10
2018-05-02T20:56:10.555Z,8.77
2018-05-02T21:00:43.750Z,8.00
2018-05-02T21:05:16.915Z,7.17
2018-05-02T21:09:50.099Z,8.17
2018-05-02T21:14:24.126Z,5.93
2018-05-02T21:18:57.263Z,9.20
2018-05-02T21:23:30.471Z,8.50
2018-05-02T21:28:03.646Z,8.90
2018-05-02T21:32:36.839Z,10.83
2018-05-02T21:37:10.806Z,17.23
2018-05-02T21:41:44.046Z,12.73
2018-05-02T21:46:17.264Z,11.63
2018-05-02T21:50:50.459Z,16.80
2018-05-02T21:55:23.681Z,12.40
2018-05-02T21:59:57.645Z,11.97
2018-05-02T22:04:30.843Z,9.27
2018-05-02T22:09:04.043Z,9.23
2018-05-02T22:13:37.253Z,9.93
2018-05-02T22:18:10.418Z,8.93
2018-05-02T22:22:43.621Z,15.07
2018-05-02T22:27:16.817Z,11.80
2018-05-02T22:31:50.015Z,11.93
2018-05-02T22:36:23.219Z,10.33
2018-05-02T22:40:56.394Z,12.47
2018-05-02T22:45:29.607Z,11.10
2018-05-02T22:50:02.777Z,6.70
2018-05-02T22:54:35.981Z,6.70
2018-05-02T22:59:09.159Z,7.60
2018-05-02T23:03:42.354Z,12.80
2018-05-02T23:08:15.586Z,14.13
2018-05-02T23:12:48.809Z,10.20
2018-05-02T23:17:22.758Z,8.57
2018-05-02T23:21:55.951Z,9.03
2018-05-02T23:26:29.909Z,9.20
2018-05-02T23:31:03.112Z,8.93
2018-05-02T23:35:36.283Z,9.43
2018-05-02T23:40:10.227Z,11.50
2018-05-02T23:44:43.435Z,10.23
2018-05-02T23:49:16.764Z,9.63
2018-05-02T23:53:49.970Z,9.17
2018-05-02T23:58:23.137Z,10.07
